Time;durP1;ratioP1;P1;durP2;ratioP2;P2;SDS_P1;SDS_P2;PMS_P1;PMS_P2;Temp;Humidity;BMP_temperature;BMP_pressure;BME280_temperature;BME280_humidity;BME280_pressure;Samples;Min_cycle;Max_cycle;Signal;HPM_P1;HPM_P2
2021/05/15 00:01:32;;;;;;;17.15;9.60;;;;;;;17.89;57.95;99104.34;5090400;28;20447;-60
2021/05/15 00:03:58;;;;;;;12.45;8.55;;;;;;;17.97;58.04;99096.13;5090937;28;20032;-62
2021/05/15 00:06:25;;;;;;;15.57;8.48;;;;;;;18.05;57.70;99089.75;5091079;28;20028;-60
2021/05/15 00:08:51;;;;;;;19.30;10.00;;;;;;;18.01;57.69;99080.31;5090858;28;20115;-62
2021/05/15 00:11:17;;;;;;;20.13;11.00;;;;;;;17.99;57.90;99058.00;5090643;28;20128;-57
2021/05/15 00:13:44;;;;;;;13.30;8.55;;;;;;;17.93;58.05;99056.88;5090446;28;20024;-59
2021/05/15 00:16:10;;;;;;;10.85;8.27;;;;;;;17.80;58.38;99038.63;5090809;28;20031;-61
2021/05/15 00:18:36;;;;;;;9.90;7.75;;;;;;;17.75;58.81;99049.19;5102954;28;20088;-61
2021/05/15 00:21:02;;;;;;;16.45;9.48;;;;;;;17.60;58.81;99025.72;5094571;28;20031;-60
2021/05/15 00:23:27;;;;;;;14.90;8.73;;;;;;;17.58;59.25;99048.56;5107325;28;20036;-61
2021/05/15 00:25:54;;;;;;;17.42;8.68;;;;;;;17.49;59.54;99055.94;5096848;28;20118;-62
2021/05/15 00:28:19;;;;;;;11.55;9.40;;;;;;;17.40;59.71;99057.91;5100481;28;20416;-60
2021/05/15 00:30:45;;;;;;;11.35;8.75;;;;;;;17.52;59.48;99074.50;5103985;28;20062;-57
2021/05/15 00:33:10;;;;;;;14.70;8.98;;;;;;;17.55;59.53;99070.59;5093812;28;20047;-61
2021/05/15 00:35:36;;;;;;;14.32;8.85;;;;;;;17.34;59.78;99043.25;5107135;28;20397;-57
2021/05/15 00:38:01;;;;;;;14.63;10.15;;;;;;;17.43;59.87;99060.22;5097833;28;20043;-57
2021/05/15 00:40:27;;;;;;;14.80;10.82;;;;;;;17.44;59.94;99063.78;5099082;28;20165;-61
2021/05/15 00:42:53;;;;;;;14.48;10.30;;;;;;;17.38;60.19;99054.53;5092567;28;20440;-60
2021/05/15 00:45:19;;;;;;;17.65;10.55;;;;;;;17.30;60.49;99062.78;5107274;28;20027;-58
2021/05/15 00:47:45;;;;;;;14.10;10.43;;;;;;;17.32;60.48;99066.94;5094693;28;20445;-60
2021/05/15 00:50:11;;;;;;;16.67;10.98;;;;;;;17.29;60.62;99061.91;5101178;28;20036;-59
2021/05/15 00:52:38;;;;;;;16.92;10.80;;;;;;;16.82;60.80;98993.63;5102702;28;20035;-60
2021/05/15 00:55:09;;;;;;;23.00;11.77;;;;;;;17.14;61.11;99050.28;5093949;28;20058;-60
2021/05/15 00:57:36;;;;;;;19.58;13.00;;;;;;;17.22;60.98;99075.34;5094019;28;20097;-60
2021/05/15 01:00:07;;;;;;;19.27;13.07;;;;;;;17.11;61.31;99050.63;5102578;28;20048;-58
2021/05/15 01:02:33;;;;;;;18.13;10.85;;;;;;;17.08;61.11;99055.38;5101709;28;20464;-58
2021/05/15 01:04:58;;;;;;;21.75;13.02;;;;;;;17.13;61.32;99057.53;5094137;28;20122;-58
2021/05/15 01:07:24;;;;;;;15.55;10.20;;;;;;;17.07;61.44;99033.94;5105091;28;20027;-55
2021/05/15 01:09:49;;;;;;;16.08;10.52;;;;;;;16.88;61.45;98995.56;5095757;28;20028;-59
2021/05/15 01:12:15;;;;;;;22.35;11.35;;;;;;;17.13;61.54;99040.47;5105405;28;20032;-61
2021/05/15 01:14:41;;;;;;;20.20;11.82;;;;;;;17.08;61.86;99054.56;5089808;28;20130;-60
2021/05/15 01:17:09;;;;;;;20.80;12.02;;;;;;;17.04;61.81;99040.56;5090134;28;20036;-53
2021/05/15 01:19:35;;;;;;;17.65;11.90;;;;;;;17.08;61.64;99043.72;5093341;28;20066;-61
2021/05/15 01:22:04;;;;;;;14.30;10.15;;;;;;;16.98;62.15;99033.19;5101598;28;20035;-58
2021/05/15 01:24:30;;;;;;;21.23;11.05;;;;;;;17.01;61.90;99032.81;5101386;28;20040;-55
2021/05/15 01:26:55;;;;;;;22.08;11.88;;;;;;;17.04;61.81;99034.31;5097387;28;20028;-58
2021/05/15 01:29:21;;;;;;;15.88;11.27;;;;;;;17.12;61.95;99033.38;5110494;28;20575;-58
2021/05/15 01:31:46;;;;;;;28.80;14.50;;;;;;;16.75;61.93;98958.38;5099772;28;20373;-58
2021/05/15 01:34:12;;;;;;;15.80;10.73;;;;;;;17.06;62.00;99008.75;5105438;28;20428;-63
2021/05/15 01:36:42;;;;;;;19.42;10.80;;;;;;;17.02;62.20;99006.63;5099114;28;20453;-57
2021/05/15 01:39:10;;;;;;;17.70;11.27;;;;;;;16.71;62.22;98951.66;5110513;28;20493;-57
2021/05/15 01:41:36;;;;;;;17.52;10.93;;;;;;;17.04;62.25;99016.22;5098085;28;20032;-58
2021/05/15 01:44:02;;;;;;;14.65;10.27;;;;;;;17.03;62.36;99019.94;5106278;27;20040;-56
2021/05/15 01:46:27;;;;;;;17.00;11.27;;;;;;;17.04;62.22;99018.09;5104664;28;20026;-58
2021/05/15 01:48:53;;;;;;;16.95;10.88;;;;;;;17.15;62.07;99028.44;5098654;28;20028;-55
2021/05/15 01:51:19;;;;;;;16.40;10.32;;;;;;;17.18;61.95;99028.06;5110429;28;20523;-55
2021/05/15 01:53:47;;;;;;;15.35;10.18;;;;;;;17.20;62.20;99026.00;5099043;28;20038;-58
2021/05/15 01:56:16;;;;;;;15.25;11.55;;;;;;;17.08;61.73;99004.00;5104156;28;20050;-58
2021/05/15 01:58:41;;;;;;;14.50;11.07;;;;;;;17.21;61.94;99027.69;5106771;28;20043;-59
2021/05/15 02:01:15;;;;;;;17.15;10.80;;;;;;;17.29;61.61;99018.63;5096837;27;20028;-56
2021/05/15 02:03:42;;;;;;;13.63;10.25;;;;;;;17.41;61.85;99034.41;5109192;28;20054;-54
2021/05/15 02:06:08;;;;;;;13.55;10.68;;;;;;;17.36;61.52;99016.03;5101903;28;20114;-57
2021/05/15 02:08:34;;;;;;;16.05;11.15;;;;;;;17.44;61.19;99013.19;5100837;28;20113;-57
2021/05/15 02:11:01;;;;;;;16.05;10.30;;;;;;;17.58;61.09;99035.03;5108946;28;20493;-60
2021/05/15 02:13:27;;;;;;;16.65;11.00;;;;;;;17.56;61.22;99029.78;5096586;28;20119;-56
2021/05/15 02:15:56;;;;;;;18.42;11.30;;;;;;;17.48;61.13;99010.97;5106571;28;20445;-57
2021/05/15 02:18:22;;;;;;;13.90;10.38;;;;;;;17.59;60.95;99021.28;5103049;28;20114;-60
2021/05/15 02:20:49;;;;;;;14.65;10.23;;;;;;;17.71;60.99;99018.13;5099456;28;20040;-60
2021/05/15 02:23:15;;;;;;;16.13;11.20;;;;;;;17.77;60.40;99010.06;5109649;28;20427;-56
2021/05/15 02:25:42;;;;;;;16.60;10.52;;;;;;;17.95;60.21;99011.50;5097524;28;20480;-58
2021/05/15 02:28:08;;;;;;;20.63;11.27;;;;;;;18.03;60.09;99019.53;5104655;28;20536;-56
2021/05/15 02:30:35;;;;;;;17.60;11.52;;;;;;;18.06;59.77;99016.44;5105230;28;20043;-52
2021/05/15 02:33:00;;;;;;;21.33;11.98;;;;;;;18.07;59.80;99014.56;5108429;28;20054;-57
2021/05/15 02:35:26;;;;;;;14.70;11.32;;;;;;;18.07;59.75;99010.00;5092258;28;20483;-57
2021/05/15 02:37:53;;;;;;;15.63;10.63;;;;;;;17.86;59.70;98974.75;5092318;28;20032;-56
2021/05/15 02:40:19;;;;;;;19.67;11.02;;;;;;;18.08;59.68;99021.66;5092634;28;20123;-56
2021/05/15 02:42:45;;;;;;;18.70;11.57;;;;;;;18.13;59.73;99021.94;5092284;28;20123;-57
2021/05/15 02:45:12;;;;;;;17.63;11.32;;;;;;;18.12;59.47;99008.56;5092648;28;20032;-54
2021/05/15 02:47:40;;;;;;;13.93;10.90;;;;;;;18.29;59.45;99023.53;5092720;28;20032;-58
2021/05/15 02:50:10;;;;;;;16.48;10.43;;;;;;;18.40;59.25;99022.19;5092261;28;20101;-50
2021/05/15 02:52:36;;;;;;;18.67;11.32;;;;;;;18.47;58.97;99014.94;5092386;28;20098;-61
2021/05/15 02:55:13;;;;;;;14.00;10.48;;;;;;;18.53;59.21;99017.91;5091982;28;20432;-59
2021/05/15 02:57:40;;;;;;;16.50;10.60;;;;;;;18.49;58.73;99017.47;5092200;28;20028;-60
2021/05/15 03:00:09;;;;;;;17.98;11.65;;;;;;;18.32;58.80;98984.38;5092344;28;20064;-61
2021/05/15 03:02:35;;;;;;;16.25;11.55;;;;;;;18.24;59.32;98982.66;5092087;28;20435;-59
2021/05/15 03:05:05;;;;;;;22.50;11.98;;;;;;;18.24;59.24;98992.63;5091890;28;20032;-60
2021/05/15 03:07:30;;;;;;;21.42;11.80;;;;;;;18.26;59.08;98977.03;5092140;28;20063;-59
2021/05/15 03:09:56;;;;;;;16.85;12.05;;;;;;;18.16;59.18;98961.94;5091737;28;20071;-59
2021/05/15 03:12:21;;;;;;;18.30;11.93;;;;;;;18.14;58.95;98966.72;5091870;28;20036;-57
2021/05/15 03:14:47;;;;;;;15.63;11.65;;;;;;;18.25;59.21;98988.91;5091670;28;20044;-57
2021/05/15 03:17:12;;;;;;;18.02;12.52;;;;;;;18.26;59.05;98983.28;5091605;28;20126;-61
2021/05/15 03:19:38;;;;;;;17.73;11.90;;;;;;;18.40;58.64;98988.81;5096230;28;20027;-56
2021/05/15 03:22:04;;;;;;;17.27;11.90;;;;;;;18.40;58.72;98980.69;5104368;28;20038;-60
2021/05/15 03:24:30;;;;;;;18.45;13.10;;;;;;;18.43;58.73;98974.88;5102823;28;20039;-58
2021/05/15 03:26:56;;;;;;;18.25;12.70;;;;;;;18.50;58.50;98973.88;5096712;28;20032;-59
2021/05/15 03:29:21;;;;;;;19.63;13.05;;;;;;;18.50;58.49;98960.34;5108119;28;20031;-56
2021/05/15 03:31:47;;;;;;;24.58;13.00;;;;;;;18.63;58.24;98975.03;5097132;28;20509;-59
2021/05/15 03:34:12;;;;;;;19.63;12.85;;;;;;;18.37;58.22;98927.75;5102428;28;20093;-58
2021/05/15 03:36:38;;;;;;;22.65;13.55;;;;;;;18.70;58.07;98975.91;5104633;28;20039;-55
2021/05/15 03:39:04;;;;;;;18.30;12.85;;;;;;;18.75;58.08;98978.88;5095126;28;20079;-58
2021/05/15 03:41:30;;;;;;;18.17;12.45;;;;;;;18.75;57.98;98975.34;5107867;28;20040;-59
2021/05/15 03:44:00;;;;;;;19.35;14.07;;;;;;;18.76;58.00;98975.13;5098467;28;20126;-59
2021/05/15 03:46:25;;;;;;;18.50;13.10;;;;;;;18.66;58.05;98969.22;5100880;28;20111;-58
2021/05/15 03:48:51;;;;;;;21.70;14.88;;;;;;;18.02;58.37;98873.47;5105018;28;20037;-59
2021/05/15 03:51:16;;;;;;;22.33;13.98;;;;;;;18.51;58.45;98964.72;5094076;28;20419;-57
2021/05/15 03:53:42;;;;;;;17.98;13.48;;;;;;;18.59;58.42;98962.91;5106906;28;20081;-57
2021/05/15 03:56:07;;;;;;;20.40;13.88;;;;;;;18.89;57.74;98971.66;5099744;28;20031;-59
2021/05/15 03:58:33;;;;;;;20.65;13.95;;;;;;;19.29;55.92;98940.38;5097906;28;20081;-58
2021/05/15 04:00:58;;;;;;;18.63;13.90;;;;;;;20.21;53.97;98962.53;5106391;28;20039;-59
2021/05/15 04:03:24;;;;;;;21.63;14.23;;;;;;;20.87;52.40;98953.75;5094090;28;20039;-56
2021/05/15 04:05:50;;;;;;;15.75;12.45;;;;;;;21.20;51.04;98950.06;5105424;28;20093;-60
2021/05/15 04:08:16;;;;;;;13.68;11.50;;;;;;;21.09;51.04;98946.13;5100431;28;20070;-53
2021/05/15 04:10:42;;;;;;;21.40;12.20;;;;;;;20.89;51.58;98949.78;5097429;28;20123;-59
2021/05/15 04:13:19;;;;;;;15.65;11.90;;;;;;;20.62;52.01;98947.06;5107233;28;20062;-60
2021/05/15 04:15:56;;;;;;;16.50;12.40;;;;;;;19.65;53.46;98877.63;5093953;28;20036;-58
2021/05/15 04:18:22;;;;;;;17.48;12.23;;;;;;;19.83;54.20;98946.81;5101012;28;20027;-60
2021/05/15 04:20:47;;;;;;;15.88;11.68;;;;;;;19.58;54.69;98944.66;5096933;28;20093;-58
2021/05/15 04:23:13;;;;;;;17.25;11.57;;;;;;;19.63;55.10;98953.03;5106998;28;20138;-59
2021/05/15 04:25:39;;;;;;;18.88;12.32;;;;;;;20.10;53.98;98952.31;5095152;28;20063;-60
2021/05/15 04:28:06;;;;;;;18.20;12.13;;;;;;;21.88;49.50;98937.00;5102730;28;20023;-57
2021/05/15 04:30:32;;;;;;;13.02;10.85;;;;;;;24.11;44.30;98938.97;5101104;28;20453;-59
2021/05/15 04:32:57;;;;;;;17.25;10.77;;;;;;;26.18;39.85;98917.88;5094866;28;20115;-61
2021/05/15 04:35:23;;;;;;;14.35;11.00;;;;;;;27.39;37.33;98914.63;5107085;28;20039;-60
2021/05/15 04:37:49;;;;;;;13.75;10.10;;;;;;;27.99;36.26;98908.38;5095685;28;20397;-60
2021/05/15 04:40:15;;;;;;;13.90;9.57;;;;;;;27.73;36.13;98905.34;5100638;28;20059;-62
2021/05/15 04:42:41;;;;;;;14.90;9.27;;;;;;;28.48;34.88;98888.94;5103508;28;20044;-58
2021/05/15 04:45:09;;;;;;;13.52;9.32;;;;;;;30.00;31.69;98908.50;5093929;28;20032;-54
2021/05/15 04:47:35;;;;;;;16.23;8.75;;;;;;;30.98;30.51;98906.75;5093925;28;20529;-58
2021/05/15 04:50:01;;;;;;;11.80;8.85;;;;;;;31.32;29.77;98876.50;5102591;28;20498;-59
2021/05/15 04:52:27;;;;;;;13.15;10.00;;;;;;;31.49;29.50;98919.56;5101014;28;20035;-55
2021/05/15 04:54:53;;;;;;;14.35;8.73;;;;;;;30.90;30.09;98913.72;5095483;28;20405;-57
2021/05/15 04:57:18;;;;;;;14.45;9.13;;;;;;;30.19;30.56;98908.00;5106483;28;20114;-58
2021/05/15 04:59:44;;;;;;;17.30;10.07;;;;;;;29.37;31.82;98932.38;5094989;28;20032;-57
2021/05/15 05:02:09;;;;;;;12.82;9.65;;;;;;;28.56;33.02;98912.38;5101221;28;20456;-58
2021/05/15 05:04:35;;;;;;;16.88;9.20;;;;;;;28.53;33.18;98923.13;5102148;28;20397;-57
2021/05/15 05:07:01;;;;;;;16.13;9.68;;;;;;;28.74;33.01;98951.59;5094282;28;20055;-58
2021/05/15 05:09:27;;;;;;;12.82;9.27;;;;;;;28.72;32.23;98847.22;5106635;28;21489;-60
2021/05/15 05:11:52;;;;;;;13.30;9.60;;;;;;;30.04;30.78;98941.94;5096110;28;20047;-53
2021/05/15 05:14:18;;;;;;;12.93;9.25;;;;;;;31.18;28.68;98961.16;5099779;28;20044;-52
2021/05/15 05:16:43;;;;;;;15.10;9.35;;;;;;;32.51;27.03;98963.44;5093250;28;20034;-52
2021/05/15 05:19:12;;;;;;;15.05;9.80;;;;;;;32.16;26.51;98952.34;5106457;28;20039;-51
2021/05/15 05:21:39;;;;;;;11.63;9.23;;;;;;;33.15;25.98;98968.06;5094056;28;20054;-53
2021/05/15 05:24:05;;;;;;;13.45;8.98;;;;;;;34.53;24.38;98957.25;5102198;28;20081;-55
2021/05/15 05:26:35;;;;;;;11.10;8.15;;;;;;;35.75;22.25;98968.22;5101362;28;20081;-54
2021/05/15 05:29:04;;;;;;;13.93;8.75;;;;;;;36.74;21.43;98953.53;5093949;28;20047;-56
2021/05/15 05:31:29;;;;;;;11.45;8.20;;;;;;;38.02;19.83;98954.88;5106399;28;20024;-49
2021/05/15 05:33:55;;;;;;;19.30;9.13;;;;;;;38.72;19.12;98931.56;5096803;28;20088;-51
2021/05/15 05:36:20;;;;;;;15.70;9.95;;;;;;;39.68;18.16;98961.06;5099402;28;20036;-56
2021/05/15 05:38:46;;;;;;;14.98;9.20;;;;;;;40.52;17.24;98967.75;5102951;28;20059;-56
2021/05/15 05:41:11;;;;;;;14.77;9.00;;;;;;;41.01;16.60;98958.63;5093591;28;20489;-55
2021/05/15 05:43:37;;;;;;;14.55;10.65;;;;;;;41.19;16.24;98964.00;5105860;28;20032;-52
2021/05/15 05:46:02;;;;;;;16.05;9.85;;;;;;;41.64;15.88;98967.84;5096980;28;20035;-56
2021/05/15 05:48:27;;;;;;;14.88;10.23;;;;;;;41.88;15.79;98964.13;5097960;28;20028;-59
2021/05/15 05:50:53;;;;;;;16.63;9.63;;;;;;;42.18;15.11;98955.38;5103317;28;20047;-55
2021/05/15 05:53:18;;;;;;;15.38;10.00;;;;;;;43.08;14.43;98969.38;5092999;28;20043;-56
2021/05/15 05:55:44;;;;;;;19.70;9.57;;;;;;;43.55;14.32;98968.50;5104302;28;20036;-58
2021/05/15 05:58:10;;;;;;;13.43;9.40;;;;;;;42.71;14.53;98962.84;5097931;28;20031;-58
2021/05/15 06:00:35;;;;;;;13.05;9.10;;;;;;;40.69;16.04;98971.53;5097306;28;20130;-55
2021/05/15 06:03:01;;;;;;;15.52;9.77;;;;;;;38.15;18.63;98941.88;5105505;28;20122;-57
2021/05/15 06:05:26;;;;;;;16.20;9.18;;;;;;;36.20;20.84;98978.59;5092129;28;20067;-60
2021/05/15 06:07:52;;;;;;;14.80;8.80;;;;;;;34.84;22.45;98981.72;5103025;28;20123;-56
2021/05/15 06:10:17;;;;;;;17.30;9.18;;;;;;;33.86;23.99;98986.84;5099004;28;20035;-56
2021/05/15 06:12:42;;;;;;;15.75;9.35;;;;;;;32.92;25.00;98984.41;5097851;28;20043;-57
2021/05/15 06:15:09;;;;;;;19.73;8.93;;;;;;;31.81;26.14;98956.19;5109510;28;20545;-52
2021/05/15 06:17:34;;;;;;;13.48;9.82;;;;;;;32.34;25.98;98986.03;5096109;28;20032;-53
2021/05/15 06:20:00;;;;;;;14.48;8.85;;;;;;;34.49;23.42;98971.78;5105927;28;20032;-55
2021/05/15 06:22:26;;;;;;;16.63;8.90;;;;;;;37.01;20.36;98942.50;5103051;28;20091;-56
2021/05/15 06:24:52;;;;;;;15.27;8.90;;;;;;;38.83;18.25;98971.19;5098803;28;20123;-59
2021/05/15 06:27:18;;;;;;;14.75;8.65;;;;;;;39.80;17.34;98957.50;5109067;28;20031;-59
2021/05/15 06:29:43;;;;;;;13.98;7.68;;;;;;;41.86;15.24;98985.38;5097986;28;20500;-55
2021/05/15 06:32:09;;;;;;;12.18;7.53;;;;;;;43.12;14.18;98978.75;5104710;28;20109;-55
2021/05/15 06:34:35;;;;;;;10.48;7.22;;;;;;;43.62;13.58;98976.31;5104497;28;20548;-54
2021/05/15 06:37:01;;;;;;;12.65;8.05;;;;;;;44.37;13.33;98976.25;5096643;28;20043;-56
2021/05/15 06:39:26;;;;;;;13.30;7.32;;;;;;;45.09;12.69;98979.59;5109215;28;20048;-54
2021/05/15 06:41:51;;;;;;;11.48;7.90;;;;;;;44.97;12.70;98977.78;5098377;28;20535;-54
2021/05/15 06:44:17;;;;;;;14.10;7.85;;;;;;;45.47;12.13;98968.47;5102688;28;20052;-55
2021/05/15 06:46:42;;;;;;;9.57;7.45;;;;;;;45.70;12.13;98976.88;5104631;28;20448;-57
2021/05/15 06:49:08;;;;;;;12.32;7.75;;;;;;;45.30;12.20;98970.63;5095986;28;20028;-61
2021/05/15 06:51:33;;;;;;;17.02;7.80;;;;;;;44.14;13.23;98974.25;5107693;28;20089;-54
2021/05/15 06:53:59;;;;;;;11.52;7.70;;;;;;;43.01;13.77;98970.03;5091860;28;20485;-57
2021/05/15 06:56:24;;;;;;;12.45;7.93;;;;;;;43.15;13.88;98969.56;5092751;28;20535;-53
2021/05/15 06:58:50;;;;;;;15.35;7.45;;;;;;;42.81;14.01;98967.13;5091458;28;20050;-54
2021/05/15 07:01:15;;;;;;;13.40;7.00;;;;;;;43.45;13.43;98935.28;5091994;28;20036;-55
2021/05/15 07:03:41;;;;;;;14.88;7.75;;;;;;;44.80;12.48;98964.97;5092228;28;20024;-57
2021/05/15 07:06:07;;;;;;;10.32;7.22;;;;;;;45.50;12.07;98944.31;5091675;28;20539;-53
2021/05/15 07:08:32;;;;;;;13.43;7.57;;;;;;;47.12;10.65;98970.72;5091658;28;20039;-56
2021/05/15 07:10:58;;;;;;;15.32;6.75;;;;;;;48.32;9.85;98967.72;5091906;28;20066;-55
2021/05/15 07:13:23;;;;;;;11.73;6.68;;;;;;;48.06;9.87;98967.66;5108433;28;20039;-58
2021/05/15 07:15:49;;;;;;;13.65;6.22;;;;;;;46.89;10.99;98956.81;5094327;28;20028;-51
2021/05/15 07:18:14;;;;;;;9.70;6.80;;;;;;;44.54;12.64;98951.63;5100912;28;20306;-56
2021/05/15 07:20:40;;;;;;;15.48;7.57;;;;;;;42.02;14.82;98954.53;5098887;28;20046;-52
2021/05/15 07:23:07;;;;;;;13.15;8.63;;;;;;;41.74;15.17;98955.31;5107263;28;20035;-53
2021/05/15 07:25:34;;;;;;;12.60;7.38;;;;;;;41.94;15.00;98953.47;5094510;28;20034;-54
2021/05/15 07:28:00;;;;;;;14.63;6.80;;;;;;;43.94;13.44;98961.31;5104825;28;20039;-55
2021/05/15 07:30:26;;;;;;;13.90;6.82;;;;;;;46.16;11.55;98952.41;5102199;28;20027;-54
2021/05/15 07:32:52;;;;;;;11.75;6.00;;;;;;;47.78;10.47;98942.81;5094886;28;20066;-58
2021/05/15 07:35:17;;;;;;;11.25;6.70;;;;;;;49.37;9.22;98947.88;5105732;28;20035;-57
2021/05/15 07:37:43;;;;;;;10.45;5.88;;;;;;;50.31;8.84;98949.59;5095335;28;20499;-53
2021/05/15 07:40:08;;;;;;;11.90;6.40;;;;;;;51.07;8.21;98946.13;5103207;28;20048;-49
2021/05/15 07:42:34;;;;;;;7.75;5.60;;;;;;;51.54;7.66;98952.16;5101841;28;20504;-56
2021/05/15 07:45:00;;;;;;;8.77;5.50;;;;;;;51.18;8.01;98946.03;5095649;28;20062;-53
2021/05/15 07:47:29;;;;;;;7.70;4.80;;;;;;;50.71;8.08;98912.28;5107831;28;20381;-55
2021/05/15 07:49:58;;;;;;;9.13;4.68;;;;;;;50.80;8.16;98958.16;5097747;28;20030;-52
2021/05/15 07:52:26;;;;;;;7.38;4.60;;;;;;;51.18;7.94;98943.16;5106126;28;20059;-50
2021/05/15 07:54:52;;;;;;;6.07;4.57;;;;;;;51.05;8.00;98948.59;5090664;28;20433;-51
2021/05/15 07:57:19;;;;;;;5.40;4.57;;;;;;;50.59;8.14;98922.94;5090701;28;20045;-52
2021/05/15 07:59:45;;;;;;;9.13;4.80;;;;;;;50.62;8.13;98907.84;5090772;28;20393;-53
2021/05/15 08:02:10;;;;;;;12.13;4.85;;;;;;;50.73;8.07;98932.59;5090769;28;20134;-54
2021/05/15 08:04:36;;;;;;;8.55;4.57;;;;;;;50.37;8.31;98937.31;5088987;28;20481;-54
2021/05/15 08:07:02;;;;;;;5.35;4.85;;;;;;;50.13;8.80;98934.19;5090897;28;20388;-51
2021/05/15 08:09:28;;;;;;;8.25;4.18;;;;;;;48.40;9.46;98921.94;5107781;28;20036;-57
2021/05/15 08:11:53;;;;;;;8.15;4.75;;;;;;;47.20;10.25;98925.47;5096860;28;20043;-51
2021/05/15 08:14:18;;;;;;;8.35;4.13;;;;;;;45.33;11.68;98931.53;5100831;28;20032;-55
2021/05/15 08:16:44;;;;;;;9.15;4.10;;;;;;;42.91;13.64;98920.72;5093686;28;20043;-51
2021/05/15 08:19:09;;;;;;;8.68;4.47;;;;;;;40.73;15.66;98920.00;5107343;28;20080;-55
2021/05/15 08:21:35;;;;;;;8.02;4.30;;;;;;;38.56;17.96;98906.09;5093798;28;20036;-55
2021/05/15 08:24:01;;;;;;;9.00;4.53;;;;;;;36.96;19.10;98926.72;5102711;28;20169;-55
2021/05/15 08:26:27;;;;;;;6.53;4.32;;;;;;;35.58;20.72;98879.81;5101466;28;20126;-52
2021/05/15 08:28:54;;;;;;;13.32;4.63;;;;;;;35.14;21.79;98926.63;5095404;28;20028;-56
2021/05/15 08:31:19;;;;;;;11.40;4.40;;;;;;;34.15;22.86;98920.06;5106362;28;20034;-58
2021/05/15 08:33:45;;;;;;;9.05;4.25;;;;;;;33.22;23.76;98919.44;5095566;28;20033;-57
2021/05/15 08:36:11;;;;;;;6.68;4.55;;;;;;;32.79;24.64;98925.72;5101177;28;20122;-51
2021/05/15 08:38:38;;;;;;;8.02;4.13;;;;;;;32.64;24.78;98942.53;5102289;28;20462;-49
2021/05/15 08:41:04;;;;;;;8.48;4.55;;;;;;;32.29;24.63;98908.47;5093645;28;20040;-53
2021/05/15 08:43:33;;;;;;;9.32;4.50;;;;;;;32.28;25.03;98942.81;5106562;28;20536;-50
2021/05/15 08:46:00;;;;;;;9.68;3.75;;;;;;;32.06;24.68;98908.13;5097009;28;20044;-51
2021/05/15 08:48:31;;;;;;;7.50;3.67;;;;;;;32.10;24.08;98924.97;5098715;28;20803;-51
2021/05/15 08:50:59;;;;;;;6.57;4.10;;;;;;;31.99;23.89;98908.47;5104828;28;20035;-53
2021/05/15 08:53:25;;;;;;;7.13;3.33;;;;;;;32.02;23.35;98916.19;5091732;28;20477;-56
2021/05/15 08:55:51;;;;;;;8.85;3.92;;;;;;;32.01;23.37;98899.84;5103653;28;20020;-56
2021/05/15 08:58:17;;;;;;;8.07;3.90;;;;;;;32.29;23.96;98922.31;5099435;28;20031;-55
2021/05/15 09:00:44;;;;;;;10.48;5.20;;;;;;;32.42;23.84;98904.22;5096318;28;20028;-53
2021/05/15 09:03:12;;;;;;;6.90;3.65;;;;;;;32.45;24.06;98915.56;5106044;28;20510;-51
2021/05/15 09:05:43;;;;;;;8.48;3.70;;;;;;;32.28;23.21;98898.50;5094023;28;20034;-53
2021/05/15 09:08:10;;;;;;;6.50;3.33;;;;;;;31.83;22.46;98885.63;5101674;28;20093;-53
2021/05/15 09:10:38;;;;;;;6.15;3.55;;;;;;;31.68;22.53;98894.81;5101894;28;20042;-53
2021/05/15 09:13:09;;;;;;;9.82;3.20;;;;;;;31.46;22.15;98909.06;5093259;28;20032;-52
2021/05/15 09:15:37;;;;;;;8.52;3.58;;;;;;;31.10;22.95;98910.03;5089312;28;20101;-53
2021/05/15 09:18:03;;;;;;;5.20;3.25;;;;;;;30.98;23.19;98895.69;5089156;28;20040;-55
2021/05/15 09:20:33;;;;;;;6.28;3.53;;;;;;;30.99;23.74;98895.44;5088995;28;20118;-55
2021/05/15 09:23:13;;;;;;;7.80;3.28;;;;;;;31.06;23.81;98887.66;5073914;28;20500;-55
2021/05/15 09:25:38;;;;;;;10.55;4.57;;;;;;;31.02;23.38;98903.16;5094881;28;20055;-51
2021/05/15 09:28:04;;;;;;;4.40;3.53;;;;;;;30.88;23.05;98880.00;5093705;28;20442;-53
2021/05/15 09:30:31;;;;;;;7.20;3.50;;;;;;;30.82;23.16;98870.06;5088727;28;20047;-55
2021/05/15 09:32:57;;;;;;;7.82;3.90;;;;;;;30.96;22.92;98893.25;5089264;28;20123;-51
2021/05/15 09:35:27;;;;;;;6.68;3.35;;;;;;;31.07;22.21;98913.38;5090145;28;20162;-54
2021/05/15 09:37:53;;;;;;;6.20;3.05;;;;;;;31.21;21.85;98903.38;5090260;28;20128;-51
2021/05/15 09:40:25;;;;;;;5.80;3.50;;;;;;;31.25;22.36;98903.63;5090026;28;20097;-53
2021/05/15 09:42:52;;;;;;;6.38;3.58;;;;;;;31.27;22.34;98890.34;5103490;28;20473;-54
2021/05/15 09:45:24;;;;;;;6.07;3.17;;;;;;;31.31;21.63;98899.72;5106601;28;20035;-54
2021/05/15 09:48:04;;;;;;;7.05;2.90;;;;;;;31.30;20.89;98903.59;5110235;28;20039;-53
2021/05/15 09:50:33;;;;;;;4.68;2.80;;;;;;;31.39;20.48;98922.38;5112271;28;20036;-48
2021/05/15 09:53:09;;;;;;;4.60;2.50;;;;;;;31.52;19.47;98907.09;5111850;28;20036;-50
2021/05/15 09:55:35;;;;;;;6.88;2.47;;;;;;;31.15;19.42;98871.31;5092954;28;20111;-54
2021/05/15 09:58:04;;;;;;;6.80;2.97;;;;;;;31.19;19.70;98896.47;5092342;28;20524;-55
2021/05/15 10:00:39;;;;;;;7.97;2.88;;;;;;;31.17;20.25;98895.91;5092736;28;20061;-53
2021/05/15 10:03:05;;;;;;;7.47;3.20;;;;;;;31.10;19.48;98887.94;5093314;28;20040;-52
2021/05/15 10:05:30;;;;;;;5.65;2.67;;;;;;;31.01;18.47;98895.97;5094201;28;20515;-51
2021/05/15 10:08:05;;;;;;;4.18;2.47;;;;;;;30.94;18.03;98907.31;5093335;28;20036;-57
2021/05/15 10:10:31;;;;;;;5.78;2.28;;;;;;;30.88;17.87;98907.66;5104362;28;20040;-51
2021/05/15 10:12:57;;;;;;;3.38;2.28;;;;;;;30.88;17.58;98883.59;5111738;28;20041;-51
2021/05/15 10:15:23;;;;;;;4.32;2.22;;;;;;;30.87;17.77;98872.84;5110515;28;20036;-53
2021/05/15 10:17:49;;;;;;;9.45;2.80;;;;;;;31.04;17.90;98873.28;5094669;28;20039;-48
2021/05/15 10:20:14;;;;;;;7.68;2.58;;;;;;;31.15;17.78;98885.13;5093400;28;20036;-55
2021/05/15 10:22:43;;;;;;;4.45;2.40;;;;;;;31.06;17.73;98903.44;5093636;28;20031;-56
2021/05/15 10:25:16;;;;;;;5.85;2.60;;;;;;;30.94;18.13;98882.44;5095158;28;20036;-51
2021/05/15 10:27:42;;;;;;;3.65;2.42;;;;;;;30.58;18.08;98840.28;5093915;28;20562;-54
2021/05/15 10:30:20;;;;;;;6.50;2.50;;;;;;;31.00;18.61;98899.03;5093678;28;20048;-49
2021/05/15 10:33:03;;;;;;;6.20;2.83;;;;;;;31.04;18.37;98889.06;5093873;28;20065;-52
2021/05/15 10:35:31;;;;;;;4.05;2.53;;;;;;;31.12;18.73;98882.94;5092034;28;20115;-55
2021/05/15 10:38:13;;;;;;;8.80;2.92;;;;;;;31.03;19.18;98877.16;5091973;28;20036;-56
2021/05/15 10:40:53;;;;;;;6.82;2.97;;;;;;;31.23;19.05;98886.50;5091035;28;20119;-54
2021/05/15 10:43:35;;;;;;;6.88;2.83;;;;;;;31.17;19.75;98887.63;5090311;28;20124;-56
2021/05/15 10:46:16;;;;;;;5.45;2.70;;;;;;;31.14;19.20;98874.38;5091305;28;20036;-51
2021/05/15 10:48:42;;;;;;;4.68;2.78;;;;;;;31.00;19.37;98858.38;5092249;28;20031;-56
2021/05/15 10:51:08;;;;;;;6.35;3.30;;;;;;;31.28;19.10;98875.41;5091797;28;20043;-45
2021/05/15 10:53:34;;;;;;;7.28;3.28;;;;;;;31.35;19.44;98873.19;5094125;28;20110;-48
2021/05/15 10:56:12;;;;;;;5.43;3.03;;;;;;;31.22;19.19;98854.44;5101919;28;20177;-46
2021/05/15 10:58:43;;;;;;;5.15;3.35;;;;;;;31.02;19.50;98839.59;5102311;28;20023;-53
2021/05/15 11:01:14;;;;;;;4.57;2.65;;;;;;;31.15;18.70;98892.63;5093431;28;20180;-44
2021/05/15 11:03:41;;;;;;;6.55;2.60;;;;;;;31.12;18.35;98895.94;5106688;28;20077;-47
2021/05/15 11:06:13;;;;;;;4.22;2.38;;;;;;;30.83;18.14;98889.13;5099088;28;20122;-47
2021/05/15 11:08:40;;;;;;;3.80;2.30;;;;;;;30.69;18.14;98880.63;5099685;28;20392;-52
2021/05/15 11:11:10;;;;;;;6.95;2.70;;;;;;;30.64;18.35;98911.03;5105915;28;20058;-48
2021/05/15 11:13:45;;;;;;;6.10;2.15;;;;;;;30.61;18.10;98889.47;5088745;28;20051;-49
2021/05/15 11:16:12;;;;;;;;;;;;;;;31.08;17.85;98879.09;5092476;28;20450;-49
2021/05/15 11:18:37;;;;;;;3.95;2.20;;;;;;;30.36;17.69;98849.72;5103453;28;19916;-48
2021/05/15 11:21:05;;;;;;;4.68;2.70;;;;;;;30.22;18.35;98877.06;5095972;28;20043;-49
2021/05/15 11:23:31;;;;;;;7.10;2.30;;;;;;;29.81;18.59;98833.75;5108834;28;20093;-45